sensor_id;sensor_type;location;lat;lon;timestamp;pressure;altitude;pressure_sealevel;temperature;humidity
7433;BME280;32233;49.500;7.764;2023-05-10T00:00:40;97851.50;;;11.53;100.00
7433;BME280;32233;49.500;7.764;2023-05-10T00:03:07;97854.72;;;11.55;100.00
7433;BME280;32233;49.500;7.764;2023-05-10T00:05:34;97851.94;;;11.50;100.00
7433;BME280;32233;49.500;7.764;2023-05-10T00:08:00;97855.75;;;11.54;100.00
7433;BME280;32233;49.500;7.764;2023-05-10T00:10:27;97859.81;;;11.56;100.00
7433;BME280;32233;49.500;7.764;2023-05-10T00:12:53;97852.38;;;11.47;100.00
7433;BME280;32233;49.500;7.764;2023-05-10T00:15:20;97847.53;;;11.44;100.00
7433;BME280;32233;49.500;7.764;2023-05-10T00:17:47;97848.34;;;11.44;100.00
7433;BME280;32233;49.500;7.764;2023-05-10T00:20:13;97852.72;;;11.50;100.00
7433;BME280;32233;49.500;7.764;2023-05-10T00:22:40;97853.13;;;11.35;100.00
7433;BME280;32233;49.500;7.764;2023-05-10T00:25:07;97860.84;;;11.37;100.00
7433;BME280;32233;49.500;7.764;2023-05-10T00:27:34;97851.84;;;11.38;100.00
7433;BME280;32233;49.500;7.764;2023-05-10T00:30:00;97848.78;;;11.41;100.00
7433;BME280;32233;49.500;7.764;2023-05-10T00:32:28;97842.06;;;11.38;100.00
7433;BME280;32233;49.500;7.764;2023-05-10T00:34:54;97844.16;;;11.36;100.00
7433;BME280;32233;49.500;7.764;2023-05-10T00:37:21;97854.06;;;11.41;100.00
7433;BME280;32233;49.500;7.764;2023-05-10T00:39:48;97849.81;;;11.40;100.00
7433;BME280;32233;49.500;7.764;2023-05-10T00:42:14;97846.50;;;11.45;100.00
7433;BME280;32233;49.500;7.764;2023-05-10T00:44:41;97846.28;;;11.46;100.00
7433;BME280;32233;49.500;7.764;2023-05-10T00:47:08;97847.25;;;11.52;100.00
7433;BME280;32233;49.500;7.764;2023-05-10T00:49:35;97845.69;;;11.44;100.00
7433;BME280;32233;49.500;7.764;2023-05-10T00:52:03;97842.06;;;11.38;100.00
7433;BME280;32233;49.500;7.764;2023-05-10T00:54:29;97849.53;;;11.48;100.00
7433;BME280;32233;49.500;7.764;2023-05-10T00:56:56;97847.25;;;11.52;100.00
7433;BME280;32233;49.500;7.764;2023-05-10T00:59:23;97849.94;;;11.45;100.00
7433;BME280;32233;49.500;7.764;2023-05-10T01:01:50;97852.03;;;11.43;100.00
7433;BME280;32233;49.500;7.764;2023-05-10T01:04:17;97847.53;;;11.44;100.00
7433;BME280;32233;49.500;7.764;2023-05-10T01:06:46;97855.97;;;11.52;100.00
7433;BME280;32233;49.500;7.764;2023-05-10T01:09:12;97863.19;;;11.45;100.00
7433;BME280;32233;49.500;7.764;2023-05-10T01:11:39;97852.38;;;11.47;100.00
7433;BME280;32233;49.500;7.764;2023-05-10T01:14:06;97851.94;;;11.50;100.00
7433;BME280;32233;49.500;7.764;2023-05-10T01:16:36;97859.06;;;11.49;100.00
7433;BME280;32233;49.500;7.764;2023-05-10T01:19:12;97859.44;;;11.34;100.00
7433;BME280;32233;49.500;7.764;2023-05-10T01:21:51;97868.34;;;11.40;100.00
7433;BME280;32233;49.500;7.764;2023-05-10T01:27:01;97849.72;;;11.47;100.00
7433;BME280;32233;49.500;7.764;2023-05-10T01:37:31;97854.22;;;11.46;100.00
7433;BME280;32233;49.500;7.764;2023-05-10T01:40:13;97856.13;;;11.39;100.00
7433;BME280;32233;49.500;7.764;2023-05-10T01:42:48;97858.50;;;11.47;100.00
7433;BME280;32233;49.500;7.764;2023-05-10T01:45:24;97863.41;;;11.44;100.00
7433;BME280;32233;49.500;7.764;2023-05-10T01:47:58;97870.09;;;11.46;100.00
7433;BME280;32233;49.500;7.764;2023-05-10T01:50:29;97865.88;;;11.38;100.00
7433;BME280;32233;49.500;7.764;2023-05-10T01:52:59;97866.63;;;11.46;100.00
7433;BME280;32233;49.500;7.764;2023-05-10T01:55:29;97863.91;;;11.34;100.00
7433;BME280;32233;49.500;7.764;2023-05-10T01:58:05;97857.97;;;11.20;100.00
7433;BME280;32233;49.500;7.764;2023-05-10T02:00:33;97860.66;;;11.13;100.00
7433;BME280;32233;49.500;7.764;2023-05-10T02:03:04;97860.38;;;11.22;100.00
7433;BME280;32233;49.500;7.764;2023-05-10T02:05:32;97869.13;;;11.22;100.00
7433;BME280;32233;49.500;7.764;2023-05-10T02:08:00;97878.75;;;11.16;100.00
7433;BME280;32233;49.500;7.764;2023-05-10T02:10:29;97879.94;;;11.21;100.00
7433;BME280;32233;49.500;7.764;2023-05-10T02:12:59;97888.66;;;11.21;100.00
7433;BME280;32233;49.500;7.764;2023-05-10T02:15:27;97887.72;;;11.15;100.00
7433;BME280;32233;49.500;7.764;2023-05-10T02:17:58;97885.53;;;11.31;100.00
7433;BME280;32233;49.500;7.764;2023-05-10T02:20:26;97887.16;;;11.32;100.00
7433;BME280;32233;49.500;7.764;2023-05-10T02:22:54;97894.47;;;11.30;100.00
7433;BME280;32233;49.500;7.764;2023-05-10T02:25:23;97898.22;;;11.22;100.00
7433;BME280;32233;49.500;7.764;2023-05-10T02:27:51;97897.88;;;11.19;100.00
7433;BME280;32233;49.500;7.764;2023-05-10T02:30:20;97902.94;;;11.20;100.00
7433;BME280;32233;49.500;7.764;2023-05-10T02:32:50;97892.22;;;11.15;100.00
7433;BME280;32233;49.500;7.764;2023-05-10T02:35:18;97893.66;;;11.11;100.00
7433;BME280;32233;49.500;7.764;2023-05-10T02:37:46;97896.47;;;11.16;100.00
7433;BME280;32233;49.500;7.764;2023-05-10T02:40:14;97894.25;;;11.13;100.00
7433;BME280;32233;49.500;7.764;2023-05-10T02:42:43;97902.84;;;11.08;100.00
7433;BME280;32233;49.500;7.764;2023-05-10T02:45:13;97905.38;;;10.97;100.00
7433;BME280;32233;49.500;7.764;2023-05-10T02:47:41;97908.81;;;10.97;100.00
7433;BME280;32233;49.500;7.764;2023-05-10T02:50:08;97905.19;;;10.98;100.00
7433;BME280;32233;49.500;7.764;2023-05-10T02:52:47;97912.66;;;11.01;100.00
7433;BME280;32233;49.500;7.764;2023-05-10T02:55:16;97910.66;;;10.97;100.00
7433;BME280;32233;49.500;7.764;2023-05-10T02:57:57;97916.47;;;11.05;100.00
7433;BME280;32233;49.500;7.764;2023-05-10T03:00:25;97907.28;;;11.14;100.00
7433;BME280;32233;49.500;7.764;2023-05-10T03:02:52;97913.84;;;11.05;100.00
7433;BME280;32233;49.500;7.764;2023-05-10T03:05:19;97912.00;;;11.06;100.00
7433;BME280;32233;49.500;7.764;2023-05-10T03:07:46;97907.38;;;11.01;100.00
7433;BME280;32233;49.500;7.764;2023-05-10T03:10:13;97910.63;;;11.03;100.00
7433;BME280;32233;49.500;7.764;2023-05-10T03:16:19;97912.22;;;11.04;100.00
7433;BME280;32233;49.500;7.764;2023-05-10T03:18:47;97923.13;;;10.89;100.00
7433;BME280;32233;49.500;7.764;2023-05-10T03:21:17;97914.38;;;10.89;100.00
7433;BME280;32233;49.500;7.764;2023-05-10T03:23:52;97908.09;;;10.90;100.00
7433;BME280;32233;49.500;7.764;2023-05-10T03:26:24;97920.31;;;10.84;100.00
7433;BME280;32233;49.500;7.764;2023-05-10T03:29:00;97912.94;;;10.93;100.00
7433;BME280;32233;49.500;7.764;2023-05-10T03:31:27;97926.16;;;10.93;100.00
7433;BME280;32233;49.500;7.764;2023-05-10T03:33:54;97916.56;;;10.99;100.00
7433;BME280;32233;49.500;7.764;2023-05-10T03:36:24;97911.94;;;11.12;100.00
7433;BME280;32233;49.500;7.764;2023-05-10T03:38:51;97916.81;;;11.15;100.00
7433;BME280;32233;49.500;7.764;2023-05-10T03:41:17;97918.03;;;11.13;100.00
7433;BME280;32233;49.500;7.764;2023-05-10T03:43:44;97918.47;;;11.10;100.00
7433;BME280;32233;49.500;7.764;2023-05-10T03:46:10;97912.38;;;11.09;100.00
7433;BME280;32233;49.500;7.764;2023-05-10T03:48:37;97917.00;;;11.14;100.00
7433;BME280;32233;49.500;7.764;2023-05-10T03:51:04;97912.66;;;11.01;100.00
7433;BME280;32233;49.500;7.764;2023-05-10T03:53:30;97921.41;;;11.02;100.00
7433;BME280;32233;49.500;7.764;2023-05-10T03:55:57;97915.63;;;11.11;100.00
7433;BME280;32233;49.500;7.764;2023-05-10T03:58:24;97915.63;;;11.11;100.00
7433;BME280;32233;49.500;7.764;2023-05-10T04:00:51;97915.28;;;11.26;100.00
7433;BME280;32233;49.500;7.764;2023-05-10T04:03:18;97922.63;;;11.24;100.00
7433;BME280;32233;49.500;7.764;2023-05-10T04:05:44;97921.22;;;11.22;100.00
7433;BME280;32233;49.500;7.764;2023-05-10T04:08:11;97925.50;;;11.23;100.00
7433;BME280;32233;49.500;7.764;2023-05-10T04:10:37;97918.47;;;11.35;100.00
7433;BME280;32233;49.500;7.764;2023-05-10T04:13:04;97923.81;;;11.28;100.00
7433;BME280;32233;49.500;7.764;2023-05-10T04:15:31;97918.91;;;11.32;100.00
7433;BME280;32233;49.500;7.764;2023-05-10T04:17:57;97920.06;;;11.36;100.00
7433;BME280;32233;49.500;7.764;2023-05-10T04:20:24;97920.38;;;11.46;100.00
7433;BME280;32233;49.500;7.764;2023-05-10T04:22:50;97922.88;;;11.23;100.00
7433;BME280;32233;49.500;7.764;2023-05-10T04:25:17;97922.63;;;11.24;100.00
7433;BME280;32233;49.500;7.764;2023-05-10T04:27:43;97932.03;;;11.20;100.00
7433;BME280;32233;49.500;7.764;2023-05-10T04:30:10;97929.38;;;11.20;100.00
7433;BME280;32233;49.500;7.764;2023-05-10T04:32:37;97926.31;;;11.23;100.00
7433;BME280;32233;49.500;7.764;2023-05-10T04:35:04;97936.25;;;11.28;100.00
7433;BME280;32233;49.500;7.764;2023-05-10T04:37:31;97931.09;;;11.33;100.00
7433;BME280;32233;49.500;7.764;2023-05-10T04:39:57;97932.66;;;11.40;100.00
7433;BME280;32233;49.500;7.764;2023-05-10T04:42:26;97943.81;;;11.43;100.00
7433;BME280;32233;49.500;7.764;2023-05-10T04:44:52;97937.44;;;11.50;100.00
7433;BME280;32233;49.500;7.764;2023-05-10T04:47:19;97936.75;;;11.55;100.00
7433;BME280;32233;49.500;7.764;2023-05-10T04:49:45;97938.56;;;11.61;100.00
7433;BME280;32233;49.500;7.764;2023-05-10T04:52:12;97945.16;;;11.52;100.00
7433;BME280;32233;49.500;7.764;2023-05-10T04:54:39;97936.84;;;11.66;100.00
7433;BME280;32233;49.500;7.764;2023-05-10T04:57:05;97944.13;;;11.71;100.00
7433;BME280;32233;49.500;7.764;2023-05-10T04:59:32;97948.88;;;11.87;100.00
7433;BME280;32233;49.500;7.764;2023-05-10T05:01:58;97955.03;;;12.00;100.00
7433;BME280;32233;49.500;7.764;2023-05-10T05:04:24;97951.00;;;11.97;100.00
7433;BME280;32233;49.500;7.764;2023-05-10T05:06:51;97963.22;;;11.98;100.00
7433;BME280;32233;49.500;7.764;2023-05-10T05:09:19;97959.75;;;11.98;100.00
7433;BME280;32233;49.500;7.764;2023-05-10T05:11:46;97975.34;;;12.06;100.00
7433;BME280;32233;49.500;7.764;2023-05-10T05:14:12;97972.69;;;12.06;100.00
7433;BME280;32233;49.500;7.764;2023-05-10T05:16:39;97974.81;;;11.79;100.00
7433;BME280;32233;49.500;7.764;2023-05-10T05:19:06;97972.06;;;11.92;100.00
7433;BME280;32233;49.500;7.764;2023-05-10T05:21:32;97978.28;;;12.16;100.00
7433;BME280;32233;49.500;7.764;2023-05-10T05:23:59;97980.78;;;12.11;100.00
7433;BME280;32233;49.500;7.764;2023-05-10T05:26:26;97986.31;;;12.09;100.00
7433;BME280;32233;49.500;7.764;2023-05-10T05:28:52;97987.28;;;11.97;100.00
7433;BME280;32233;49.500;7.764;2023-05-10T05:31:21;97988.91;;;11.98;100.00
7433;BME280;32233;49.500;7.764;2023-05-10T05:33:47;97997.56;;;11.86;100.00
7433;BME280;32233;49.500;7.764;2023-05-10T05:36:14;97992.28;;;12.05;100.00
7433;BME280;32233;49.500;7.764;2023-05-10T05:38:40;97986.75;;;12.55;100.00
7433;BME280;32233;49.500;7.764;2023-05-10T05:41:07;97983.97;;;13.57;100.00
7433;BME280;32233;49.500;7.764;2023-05-10T05:43:33;97989.22;;;14.04;100.00
7433;BME280;32233;49.500;7.764;2023-05-10T05:46:03;97986.66;;;13.03;100.00
7433;BME280;32233;49.500;7.764;2023-05-10T05:48:30;97983.75;;;12.51;100.00
7433;BME280;32233;49.500;7.764;2023-05-10T05:50:57;97984.97;;;12.37;100.00
7433;BME280;32233;49.500;7.764;2023-05-10T05:53:24;97983.84;;;13.28;100.00
7433;BME280;32233;49.500;7.764;2023-05-10T05:55:52;97988.56;;;13.26;100.00
7433;BME280;32233;49.500;7.764;2023-05-10T05:58:19;97988.75;;;13.13;100.00
7433;BME280;32233;49.500;7.764;2023-05-10T06:00:46;97988.59;;;12.96;100.00
7433;BME280;32233;49.500;7.764;2023-05-10T06:03:12;97974.75;;;12.82;100.00
7433;BME280;32233;49.500;7.764;2023-05-10T06:05:39;97976.72;;;12.87;100.00
7433;BME280;32233;49.500;7.764;2023-05-10T06:08:05;97970.00;;;12.84;100.00
7433;BME280;32233;49.500;7.764;2023-05-10T06:10:32;97977.88;;;14.77;100.00
7433;BME280;32233;49.500;7.764;2023-05-10T06:12:58;97964.41;;;17.47;85.33
7433;BME280;32233;49.500;7.764;2023-05-10T06:15:25;97976.47;;;18.86;76.74
7433;BME280;32233;49.500;7.764;2023-05-10T06:17:52;97975.38;;;19.63;71.55
7433;BME280;32233;49.500;7.764;2023-05-10T06:20:18;97979.69;;;19.49;71.02
7433;BME280;32233;49.500;7.764;2023-05-10T06:22:45;97974.06;;;19.66;69.87
7433;BME280;32233;49.500;7.764;2023-05-10T06:25:12;97978.53;;;19.96;68.65
7433;BME280;32233;49.500;7.764;2023-05-10T06:27:38;97979.44;;;20.36;67.66
7433;BME280;32233;49.500;7.764;2023-05-10T06:30:05;97982.84;;;20.62;65.46
7433;BME280;32233;49.500;7.764;2023-05-10T06:32:39;97997.38;;;18.84;70.36
7433;BME280;32233;49.500;7.764;2023-05-10T06:35:06;98000.63;;;18.23;74.29
7433;BME280;32233;49.500;7.764;2023-05-10T06:37:32;97998.91;;;17.59;79.06
7433;BME280;32233;49.500;7.764;2023-05-10T06:39:59;98005.38;;;18.05;77.17
7433;BME280;32233;49.500;7.764;2023-05-10T06:42:26;98001.44;;;18.28;75.37
7433;BME280;32233;49.500;7.764;2023-05-10T06:44:53;98010.66;;;17.21;80.51
7433;BME280;32233;49.500;7.764;2023-05-10T06:47:20;98017.53;;;15.75;85.92
7433;BME280;32233;49.500;7.764;2023-05-10T06:49:46;98011.19;;;14.80;96.88
7433;BME280;32233;49.500;7.764;2023-05-10T06:52:13;98015.63;;;14.34;99.74
7433;BME280;32233;49.500;7.764;2023-05-10T06:54:39;98020.69;;;13.72;100.00
7433;BME280;32233;49.500;7.764;2023-05-10T06:57:06;98022.19;;;13.68;100.00
7433;BME280;32233;49.500;7.764;2023-05-10T06:59:48;98017.78;;;13.61;100.00
7433;BME280;32233;49.500;7.764;2023-05-10T07:02:15;98022.47;;;14.18;100.00
7433;BME280;32233;49.500;7.764;2023-05-10T07:04:42;98019.06;;;14.34;100.00
7433;BME280;32233;49.500;7.764;2023-05-10T07:07:08;98030.69;;;14.17;100.00
7433;BME280;32233;49.500;7.764;2023-05-10T07:09:35;98027.72;;;13.78;100.00
7433;BME280;32233;49.500;7.764;2023-05-10T07:12:01;98021.59;;;13.66;100.00
7433;BME280;32233;49.500;7.764;2023-05-10T07:14:28;98022.66;;;13.76;100.00
7433;BME280;32233;49.500;7.764;2023-05-10T07:16:54;98031.06;;;14.08;100.00
7433;BME280;32233;49.500;7.764;2023-05-10T07:19:21;98036.44;;;15.73;96.99
7433;BME280;32233;49.500;7.764;2023-05-10T07:21:48;98036.72;;;16.16;92.74
7433;BME280;32233;49.500;7.764;2023-05-10T07:24:15;98033.38;;;16.91;86.65
7433;BME280;32233;49.500;7.764;2023-05-10T07:26:41;98031.22;;;16.22;85.37
7433;BME280;32233;49.500;7.764;2023-05-10T07:29:08;98039.16;;;15.28;94.48
7433;BME280;32233;49.500;7.764;2023-05-10T07:31:34;98033.97;;;14.35;97.40
7433;BME280;32233;49.500;7.764;2023-05-10T07:34:01;98037.81;;;14.16;100.00
7433;BME280;32233;49.500;7.764;2023-05-10T07:36:28;98039.50;;;13.70;100.00
7433;BME280;32233;49.500;7.764;2023-05-10T07:38:55;98043.97;;;13.34;100.00
7433;BME280;32233;49.500;7.764;2023-05-10T07:41:22;98037.97;;;13.27;100.00
7433;BME280;32233;49.500;7.764;2023-05-10T07:43:49;98036.25;;;13.45;100.00
7433;BME280;32233;49.500;7.764;2023-05-10T07:46:15;98036.41;;;14.37;100.00
7433;BME280;32233;49.500;7.764;2023-05-10T07:48:42;98038.94;;;14.44;100.00
7433;BME280;32233;49.500;7.764;2023-05-10T07:51:09;98034.72;;;14.71;100.00
7433;BME280;32233;49.500;7.764;2023-05-10T07:53:36;98039.13;;;14.66;96.73
7433;BME280;32233;49.500;7.764;2023-05-10T07:58:46;98042.72;;;13.96;97.20
7433;BME280;32233;49.500;7.764;2023-05-10T08:01:13;98042.03;;;13.88;100.00
7433;BME280;32233;49.500;7.764;2023-05-10T08:03:39;98039.84;;;13.62;100.00
7433;BME280;32233;49.500;7.764;2023-05-10T08:06:06;98044.88;;;14.22;95.59
7433;BME280;32233;49.500;7.764;2023-05-10T08:08:32;98053.78;;;14.16;97.63
7433;BME280;32233;49.500;7.764;2023-05-10T08:10:59;98052.25;;;14.20;98.18
7433;BME280;32233;49.500;7.764;2023-05-10T08:13:25;98057.44;;;14.50;95.63
7433;BME280;32233;49.500;7.764;2023-05-10T08:15:52;98047.00;;;14.08;97.22
7433;BME280;32233;49.500;7.764;2023-05-10T08:18:19;98061.53;;;13.59;99.81
7433;BME280;32233;49.500;7.764;2023-05-10T08:20:47;98064.50;;;13.27;100.00
7433;BME280;32233;49.500;7.764;2023-05-10T08:23:14;98067.91;;;13.16;100.00
7433;BME280;32233;49.500;7.764;2023-05-10T08:25:41;98063.13;;;12.95;100.00
7433;BME280;32233;49.500;7.764;2023-05-10T08:28:08;98065.91;;;13.00;100.00
7433;BME280;32233;49.500;7.764;2023-05-10T08:30:37;98070.88;;;13.08;100.00
7433;BME280;32233;49.500;7.764;2023-05-10T08:33:03;98077.03;;;13.20;100.00
7433;BME280;32233;49.500;7.764;2023-05-10T08:35:30;98077.78;;;13.27;100.00
7433;BME280;32233;49.500;7.764;2023-05-10T08:37:57;98076.19;;;13.08;100.00
7433;BME280;32233;49.500;7.764;2023-05-10T08:40:24;98090.72;;;12.75;100.00
7433;BME280;32233;49.500;7.764;2023-05-10T08:42:55;98094.78;;;12.59;100.00
7433;BME280;32233;49.500;7.764;2023-05-10T08:45:27;98098.25;;;12.60;100.00
7433;BME280;32233;49.500;7.764;2023-05-10T08:48:01;98102.03;;;12.34;100.00
7433;BME280;32233;49.500;7.764;2023-05-10T08:50:29;98116.59;;;12.25;100.00
7433;BME280;32233;49.500;7.764;2023-05-10T08:52:59;98112.75;;;12.21;100.00
7433;BME280;32233;49.500;7.764;2023-05-10T08:55:27;98112.00;;;12.13;100.00
7433;BME280;32233;49.500;7.764;2023-05-10T08:57:54;98120.09;;;12.19;100.00
7433;BME280;32233;49.500;7.764;2023-05-10T09:00:21;98116.88;;;12.17;100.00
7433;BME280;32233;49.500;7.764;2023-05-10T09:02:50;98114.44;;;12.15;100.00
7433;BME280;32233;49.500;7.764;2023-05-10T09:05:16;98121.00;;;12.12;100.00
7433;BME280;32233;49.500;7.764;2023-05-10T09:07:44;98127.41;;;12.23;100.00
7433;BME280;32233;49.500;7.764;2023-05-10T09:10:11;98125.41;;;12.19;100.00
7433;BME280;32233;49.500;7.764;2023-05-10T09:12:38;98133.06;;;12.27;100.00
7433;BME280;32233;49.500;7.764;2023-05-10T09:15:06;98133.09;;;12.45;100.00
7433;BME280;32233;49.500;7.764;2023-05-10T09:17:33;98144.13;;;12.60;100.00
7433;BME280;32233;49.500;7.764;2023-05-10T09:20:02;98141.13;;;13.05;100.00
7433;BME280;32233;49.500;7.764;2023-05-10T09:22:30;98137.38;;;13.43;97.43
7433;BME280;32233;49.500;7.764;2023-05-10T09:25:10;98139.97;;;13.73;98.08
7433;BME280;32233;49.500;7.764;2023-05-10T09:27:39;98135.16;;;14.29;94.05
7433;BME280;32233;49.500;7.764;2023-05-10T09:30:06;98132.44;;;14.76;90.03
7433;BME280;32233;49.500;7.764;2023-05-10T09:35:10;98132.00;;;14.67;87.54
7433;BME280;32233;49.500;7.764;2023-05-10T09:37:42;98137.34;;;14.08;91.48
7433;BME280;32233;49.500;7.764;2023-05-10T09:40:14;98138.72;;;13.76;90.68
7433;BME280;32233;49.500;7.764;2023-05-10T09:45:22;98135.47;;;13.85;94.54
7433;BME280;32233;49.500;7.764;2023-05-10T09:47:49;98144.84;;;14.00;93.13
7433;BME280;32233;49.500;7.764;2023-05-10T09:50:16;98136.53;;;14.20;91.63
7433;BME280;32233;49.500;7.764;2023-05-10T09:52:50;98132.25;;;14.19;90.25
7433;BME280;32233;49.500;7.764;2023-05-10T09:55:19;98135.97;;;14.18;86.18
7433;BME280;32233;49.500;7.764;2023-05-10T09:57:46;98137.31;;;14.67;90.96
7433;BME280;32233;49.500;7.764;2023-05-10T10:00:18;98131.00;;;15.59;84.13
7433;BME280;32233;49.500;7.764;2023-05-10T10:02:47;98139.09;;;15.64;83.61
7433;BME280;32233;49.500;7.764;2023-05-10T10:05:14;98143.00;;;15.73;78.75
7433;BME280;32233;49.500;7.764;2023-05-10T10:10:35;98137.34;;;16.03;76.28
7433;BME280;32233;49.500;7.764;2023-05-10T10:13:02;98124.34;;;16.46;77.17
7433;BME280;32233;49.500;7.764;2023-05-10T10:15:29;98134.31;;;16.94;75.69
7433;BME280;32233;49.500;7.764;2023-05-10T10:17:55;98129.06;;;17.86;73.30
7433;BME280;32233;49.500;7.764;2023-05-10T10:20:22;98125.84;;;17.56;71.73
7433;BME280;32233;49.500;7.764;2023-05-10T10:22:49;98125.06;;;17.88;69.72
7433;BME280;32233;49.500;7.764;2023-05-10T10:25:17;98119.28;;;18.01;69.16
7433;BME280;32233;49.500;7.764;2023-05-10T10:35:31;98116.16;;;17.77;67.38
7433;BME280;32233;49.500;7.764;2023-05-10T10:38:00;98106.03;;;18.22;64.27
7433;BME280;32233;49.500;7.764;2023-05-10T10:40:27;98106.38;;;18.41;63.14
7433;BME280;32233;49.500;7.764;2023-05-10T10:42:54;98114.41;;;17.61;61.99
7433;BME280;32233;49.500;7.764;2023-05-10T10:45:22;98110.91;;;16.79;65.43
7433;BME280;32233;49.500;7.764;2023-05-10T10:47:49;98119.97;;;16.18;65.88
7433;BME280;32233;49.500;7.764;2023-05-10T10:50:19;98129.28;;;15.81;68.76
7433;BME280;32233;49.500;7.764;2023-05-10T10:52:46;98132.47;;;15.50;66.60
7433;BME280;32233;49.500;7.764;2023-05-10T10:55:15;98136.44;;;14.90;67.73
7433;BME280;32233;49.500;7.764;2023-05-10T10:57:52;98129.59;;;14.94;70.41
7433;BME280;32233;49.500;7.764;2023-05-10T11:00:30;98144.59;;;14.72;73.94
7433;BME280;32233;49.500;7.764;2023-05-10T11:03:04;98147.25;;;14.60;74.48
7433;BME280;32233;49.500;7.764;2023-05-10T11:05:35;98146.00;;;14.39;75.83
7433;BME280;32233;49.500;7.764;2023-05-10T11:08:14;98152.81;;;14.23;74.43
7433;BME280;32233;49.500;7.764;2023-05-10T11:10:50;98151.81;;;14.12;74.86
7433;BME280;32233;49.500;7.764;2023-05-10T11:13:30;98144.84;;;14.00;74.33
7433;BME280;32233;49.500;7.764;2023-05-10T11:15:58;98147.50;;;14.00;78.56
7433;BME280;32233;49.500;7.764;2023-05-10T11:18:27;98155.25;;;14.01;79.21
7433;BME280;32233;49.500;7.764;2023-05-10T11:20:59;98157.69;;;14.15;75.73
7433;BME280;32233;49.500;7.764;2023-05-10T11:23:31;98159.75;;;14.24;76.72
7433;BME280;32233;49.500;7.764;2023-05-10T11:26:01;98149.91;;;14.48;77.17
7433;BME280;32233;49.500;7.764;2023-05-10T11:28:27;98152.13;;;14.63;76.70
7433;BME280;32233;49.500;7.764;2023-05-10T11:30:54;98151.06;;;14.41;71.68
7433;BME280;32233;49.500;7.764;2023-05-10T11:33:22;98147.16;;;14.55;73.77
7433;BME280;32233;49.500;7.764;2023-05-10T11:35:48;98147.47;;;14.82;74.63
7433;BME280;32233;49.500;7.764;2023-05-10T11:38:15;98156.28;;;15.11;70.57
7433;BME280;32233;49.500;7.764;2023-05-10T11:40:42;98150.53;;;15.02;69.41
7433;BME280;32233;49.500;7.764;2023-05-10T11:43:09;98149.09;;;15.57;67.78
7433;BME280;32233;49.500;7.764;2023-05-10T11:45:37;98149.13;;;16.85;63.82
7433;BME280;32233;49.500;7.764;2023-05-10T11:48:03;98148.88;;;17.63;62.71
7433;BME280;32233;49.500;7.764;2023-05-10T11:50:30;98149.44;;;16.89;58.78
7433;BME280;32233;49.500;7.764;2023-05-10T11:52:57;98160.56;;;16.42;58.82
7433;BME280;32233;49.500;7.764;2023-05-10T11:55:24;98160.19;;;16.33;61.17
7433;BME280;32233;49.500;7.764;2023-05-10T11:57:52;98156.47;;;16.73;60.80
7433;BME280;32233;49.500;7.764;2023-05-10T12:00:19;98164.28;;;17.01;58.83
7433;BME280;32233;49.500;7.764;2023-05-10T12:02:47;98151.78;;;17.29;59.29
7433;BME280;32233;49.500;7.764;2023-05-10T12:05:13;98147.69;;;18.55;55.21
7433;BME280;32233;49.500;7.764;2023-05-10T12:07:40;98143.88;;;20.77;50.04
7433;BME280;32233;49.500;7.764;2023-05-10T12:10:12;98141.88;;;20.02;49.90
7433;BME280;32233;49.500;7.764;2023-05-10T12:12:46;98144.25;;;21.15;47.73
7433;BME280;32233;49.500;7.764;2023-05-10T12:15:21;98135.38;;;22.51;44.64
7433;BME280;32233;49.500;7.764;2023-05-10T12:17:49;98135.81;;;23.06;40.90
7433;BME280;32233;49.500;7.764;2023-05-10T12:20:18;98135.81;;;23.82;39.62
7433;BME280;32233;49.500;7.764;2023-05-10T12:22:56;98136.59;;;22.64;42.00
7433;BME280;32233;49.500;7.764;2023-05-10T12:25:30;98129.97;;;23.93;38.30
7433;BME280;32233;49.500;7.764;2023-05-10T12:27:58;98136.25;;;23.51;40.89
7433;BME280;32233;49.500;7.764;2023-05-10T12:30:28;98138.25;;;21.28;44.42
7433;BME280;32233;49.500;7.764;2023-05-10T12:33:12;98149.94;;;19.77;47.82
7433;BME280;32233;49.500;7.764;2023-05-10T12:35:46;98153.31;;;20.69;46.80
7433;BME280;32233;49.500;7.764;2023-05-10T12:38:29;98152.31;;;20.35;46.97
7433;BME280;32233;49.500;7.764;2023-05-10T12:41:00;98152.84;;;19.50;49.60
7433;BME280;32233;49.500;7.764;2023-05-10T12:43:28;98146.38;;;20.53;48.66
7433;BME280;32233;49.500;7.764;2023-05-10T12:45:55;98154.53;;;18.83;50.35
7433;BME280;32233;49.500;7.764;2023-05-10T12:48:22;98149.41;;;17.92;54.64
7433;BME280;32233;49.500;7.764;2023-05-10T12:50:49;98166.50;;;17.86;54.30
7433;BME280;32233;49.500;7.764;2023-05-10T12:53:16;98155.94;;;18.06;50.88
7433;BME280;32233;49.500;7.764;2023-05-10T12:55:43;98148.56;;;18.66;52.14
7433;BME280;32233;49.500;7.764;2023-05-10T12:58:10;98155.34;;;18.36;53.70
7433;BME280;32233;49.500;7.764;2023-05-10T13:00:43;98159.13;;;18.03;55.03
7433;BME280;32233;49.500;7.764;2023-05-10T13:03:10;98156.91;;;17.90;56.32
7433;BME280;32233;49.500;7.764;2023-05-10T13:05:37;98159.53;;;18.69;55.23
7433;BME280;32233;49.500;7.764;2023-05-10T13:08:04;98155.91;;;18.43;54.82
7433;BME280;32233;49.500;7.764;2023-05-10T13:10:31;98161.41;;;17.84;55.79
7433;BME280;32233;49.500;7.764;2023-05-10T13:12:58;98162.72;;;17.81;56.51
7433;BME280;32233;49.500;7.764;2023-05-10T13:15:25;98170.53;;;17.61;54.71
7433;BME280;32233;49.500;7.764;2023-05-10T13:17:53;98158.91;;;18.10;55.26
7433;BME280;32233;49.500;7.764;2023-05-10T13:20:20;98160.00;;;19.14;51.30
7433;BME280;32233;49.500;7.764;2023-05-10T13:22:47;98164.03;;;19.21;48.96
7433;BME280;32233;49.500;7.764;2023-05-10T13:25:15;98160.31;;;19.27;49.16
7433;BME280;32233;49.500;7.764;2023-05-10T13:27:42;98159.78;;;18.68;48.51
7433;BME280;32233;49.500;7.764;2023-05-10T13:30:09;98162.66;;;18.51;50.43
7433;BME280;32233;49.500;7.764;2023-05-10T13:32:37;98153.19;;;18.33;52.53
7433;BME280;32233;49.500;7.764;2023-05-10T13:35:05;98157.31;;;18.09;54.98
7433;BME280;32233;49.500;7.764;2023-05-10T13:37:31;98151.03;;;18.77;53.06
7433;BME280;32233;49.500;7.764;2023-05-10T13:40:01;98155.34;;;18.84;50.39
7433;BME280;32233;49.500;7.764;2023-05-10T13:42:28;98158.97;;;18.62;51.63